Nevihte Od: 01-08-2021 00:00 Do: 23:59 Opozorilo za: Nevihte Stopnja: Oranžna info button
Dež Od: 01-08-2021 12:00 Do: 22:59 Opozorilo za: Dež Stopnja: Rumena info button
Veter Od: 01-08-2021 09:00 Do: 17:59 Opozorilo za: Veter Stopnja: Rumena info button

METAR v bližini

 

LIPQ - Ronchi Legionari, Italy
Oddaljenost od postaje: JZ 35km
Podatki zajeti: 01. 08. 2021 13:20
Rahlo oblačno
Rahlo oblačno
 Veter iz smeri JZ
Veter: JZ 28 km/h
Temperatura: 29°C
Toplotni indeks: 31°C
Temp. rosišča: 21°C
Vlažnost: 62%
Tlak: 1003 hPa
Oblačnost: Rahlo oblačno
Vidljivost: 10 km
Podrobnosti o oblakih: Rahlo oblačno 4877 m
2021/08/01 11:20 LIPQ 011120Z AUTO 23015KT 9999 FEW160/// 29/21 Q1003
LIVT - Trieste, Italy
Oddaljenost od postaje: J 49km
Podatki zajeti: 01. 08. 2021 12:55
Delno oblačno
Delno oblačno
 Veter iz smeri SV
Veter: SV 13 km/h
Temperatura: 31°C
Toplotni indeks: 37°C
Temp. rosišča: 24°C
Vlažnost: 66%
Tlak: 1003 hPa
Oblačnost: Delno oblačno
Vidljivost: 10 km
Podrobnosti o oblakih: Delno oblačno 914 m
2021/08/01 10:55 LIVT 011055Z 04007KT 9999 SCT030TCU 31/24 Q1003 RMK SCT SCT200 QUK 2 QUL 1 NE VIS MAR 15 KM VIS MIN 9999
 
LIVO - Tarvisio, Italy
Oddaljenost od postaje: SSZ 49km
Podatki zajeti: 01. 08. 2021 12:55
Manjša nevihta, Dež, Delno oblačno
Manjša nevihta, Dež, Delno oblačno
 Veter iz smeri VJV
Veter: VJV 2 km/h
Temperatura: 16°C
Temp. rosišča: 15°C
Vlažnost: 94%
Tlak: 1007 hPa
Stanje: Manjša nevihta, Dež
Oblačnost: Delno oblačno
Vidljivost: 6 km
Podrobnosti o oblakih: Delno oblačno 610 m
Delno oblačno 914 m
2021/08/01 10:55 LIVO 011055Z 11001KT 6000 -TSRA SCT020CB SCT030 16/15 Q1007 RMK OVC VIS MIN 6000
LIPI - Rivolto (it-Afb), Italy
Oddaljenost od postaje: ZJZ 57km
Podatki zajeti: 30. 07. 2021 11:55
Ni posodobljen
Rahlo oblačno
Rahlo oblačno
 Veter iz smeri J
Veter: J 9 km/h
Temperatura: 29°C
Toplotni indeks: 31°C
Temp. rosišča: 21°C
Vlažnost: 62%
Tlak: 1011 hPa
Oblačnost: Rahlo oblačno
Vidljivost: 10 km
Podrobnosti o oblakih: Rahlo oblačno 1067 m
2021/07/30 09:55 LIPI 300955Z 18005KT 9999 FEW035 29/21 Q1011 RMK FEW VIS MIN 9999 WIND THR06 VRB02KT WIND THR24 10003KT BLU
 
LJLJ - Ljubljana/Brnik, Slovenia
Oddaljenost od postaje: VSV 59km
Podatki zajeti: 01. 08. 2021 13:30
Rahlo dežuje, Plohe, Nevihte v okolici, Pretežno oblačno
Rahlo dežuje, Plohe, Nevihte v okolici, Pretežno oblačno
 Veter iz smeri S
Veter: S 15 km/h
Temperatura: 19°C
Temp. rosišča: 17°C
Vlažnost: 88%
Tlak: 1006 hPa
Stanje: Rahlo dežuje, Plohe, Nevihte v okolici
Oblačnost: Pretežno oblačno
Vidljivost: 10 km
Podrobnosti o oblakih: Rahlo oblačno 914 m
Rahlo oblačno 1524 m
Pretežno oblačno 1829 m
2021/08/01 11:30 LJLJ 011130Z 35008KT 9999 -SHRA VCTS FEW030CB FEW050 BKN060 19/17 Q1006 RETSRA NOSIG
LJPZ - Portoroz, Slovenia
Oddaljenost od postaje: J 68km
Podatki zajeti: 01. 08. 2021 13:30
Delno oblačno
Delno oblačno
 Veter iz smeri JJZ
Veter: JJZ 24 km/h
Temperatura: 29°C
Toplotni indeks: 31°C
Temp. rosišča: 20°C
Vlažnost: 58%
Tlak: 1004 hPa
Oblačnost: Delno oblačno
Vidljivost: 10 km
Podrobnosti o oblakih: Rahlo oblačno 1067 m
Delno oblačno 3353 m
2021/08/01 11:30 LJPZ 011130Z 20013KT 150V250 9999 FEW035 SCT110 29/20 Q1004
 
LOWK - Klagenfurt(Civ/M, Austria
Oddaljenost od postaje: SV 78km
Podatki zajeti: 01. 08. 2021 13:20
Rahlo dežuje, Plohe, Pretežno oblačno
Rahlo dežuje, Plohe, Pretežno oblačno
 Veter iz smeri JJZ
Veter: JJZ 6 km/h
Temperatura: 20°C
Temp. rosišča: 19°C
Vlažnost: 94%
Tlak: 1006 hPa
Stanje: Rahlo dežuje, Plohe
Oblačnost: Pretežno oblačno
Vidljivost: 10 km
Podrobnosti o oblakih: Rahlo oblačno 91 m
Rahlo oblačno 1524 m
Pretežno oblačno 1829 m
Pretežno oblačno 3048 m
2021/08/01 11:20 LOWK 011120Z 20003KT 110V260 9999 -SHRA FEW003 FEW050CB BKN060 BKN100 20/19 Q1006 TEMPO SHRA
LIPA - Aviano (it/Us-Af, Italy
Oddaljenost od postaje: Z 89km
Podatki zajeti: 31. 07. 2021 16:55
Ni posodobljen
Delno oblačno
Delno oblačno
 Veter iz smeri SZ
Veter: SZ 4 km/h
Temperatura: 28°C
Toplotni indeks: 30°C
Temp. rosišča: 21°C
Vlažnost: 66%
Tlak: 1008 hPa
Oblačnost: Delno oblačno
Vidljivost: 10 km
Podrobnosti o oblakih: Rahlo oblačno 1524 m
Delno oblačno 2438 m
2021/07/31 14:55 LIPA 311455Z 31002KT 9999 FEW050TCU SCT080 28/21 Q1008 RMK BKN VIS MIN 9999 WIND THR05 /////KT WIND THR23 /////KT A2978 BLU
 
LDRI - Rijeka/Omisalj, Croatia
Oddaljenost od postaje: JV 115km
Podatki zajeti: 01. 08. 2021 13:30
Rahlo oblačno
Rahlo oblačno
 Veter iz smeri JZ
Veter: JZ 28 km/h, Sunek vetra: 52 km/h
Temperatura: 30°C
Toplotni indeks: 31°C
Temp. rosišča: 18°C
Vlažnost: 49%
Tlak: 1005 hPa
Oblačnost: Rahlo oblačno
Vidljivost: 10 km
Podrobnosti o oblakih: Rahlo oblačno 1067 m
2021/08/01 11:30 LDRI 011130Z 22015G28KT 160V270 9999 FEW035 30/18 Q1005
LIPZ - Venezia/Tessera, Italy
Oddaljenost od postaje: ZJZ 127km
Podatki zajeti: 01. 08. 2021 13:20
Delno oblačno
Delno oblačno
 Veter iz smeri JZ
Veter: JZ 20 km/h
Temperatura: 29°C
Toplotni indeks: 31°C
Temp. rosišča: 21°C
Vlažnost: 62%
Tlak: 1003 hPa
Oblačnost: Delno oblačno
Vidljivost: 10 km
Podrobnosti o oblakih: Delno oblačno 1524 m
2021/08/01 11:20 LIPZ 011120Z 22011KT 9999 SCT050 29/21 Q1003 NOSIG
 
LDPL - Pula, Croatia
Oddaljenost od postaje: J 133km
Podatki zajeti: 01. 08. 2021 13:30
Rahlo oblačno
Rahlo oblačno
 Veter iz smeri JZ
Veter: JZ 30 km/h
Temperatura: 29°C
Toplotni indeks: 30°C
Temp. rosišča: 19°C
Vlažnost: 55%
Tlak: 1005 hPa
Oblačnost: Rahlo oblačno
Vidljivost: 10 km
Podrobnosti o oblakih: Rahlo oblačno 975 m
2021/08/01 11:30 LDPL 011130Z 23016KT 9999 FEW032 29/19 Q1005 TEMPO FEW040TCU
LIPS - Istrana (it-Afb), Italy
Oddaljenost od postaje: ZJZ 136km
Podatki zajeti: 01. 08. 2021 12:55
Nevihte, Delno oblačno
Nevihte, Delno oblačno
 Veter iz smeri ZJZ
Veter: ZJZ 19 km/h
Temperatura: 28°C
Toplotni indeks: 31°C
Temp. rosišča: 23°C
Vlažnost: 74%
Tlak: 1003 hPa
Stanje: Nevihte
Oblačnost: Delno oblačno
Vidljivost: 10 km
Podrobnosti o oblakih: Rahlo oblačno 610 m
Delno oblačno 762 m
2021/08/01 10:55 LIPS 011055Z 25010KT 9999 TS FEW020CB SCT025TCU 28/23 Q1003 RMK BKN VIS MIN 9999 WIND THR26 19008KT WIND THR08 23005KT BLK BLU
 
LIVD - Dobbiaco, Italy
Oddaljenost od postaje: ZSZ 137km
Podatki zajeti: 30. 07. 2021 19:55
Ni posodobljen

 
2021/07/30 17:55 LIVD 301755Z ///02KT 9999 BKN030 17/15 Q1016 RETS RMK BKN VIS MIN 9999
LJCE - Cerklje, Slovenia
Oddaljenost od postaje: V 139km
Podatki zajeti: 01. 08. 2021 13:30
Delno oblačno
Delno oblačno
 Veter iz smeri spremenljiv
Veter: spremenljiv 6 km/h
Temperatura: 27°C
Toplotni indeks: 29°C
Temp. rosišča: 20°C
Vlažnost: 66%
Tlak: 1004 hPa
Oblačnost: Delno oblačno
Vidljivost: 10 km
2021/08/01 11:30 LJCE 011130Z AUTO VRB03KT 9999 NSC 27/20 Q1004
 
LOXZ - Zeltweg (mil), Austria
Oddaljenost od postaje: SSV 147km
Podatki zajeti: 01. 08. 2021 13:20
Manjša nevihta, Dež, Pretežno oblačno
Manjša nevihta, Dež, Pretežno oblačno
 Veter iz smeri JV
Veter: JV 9 km/h
Temperatura: 18°C
Temp. rosišča: 17°C
Vlažnost: 94%
Tlak: 1007 hPa
Stanje: Manjša nevihta, Dež
Oblačnost: Pretežno oblačno
Podrobnosti o oblakih: Rahlo oblačno 366 m
Rahlo oblačno 914 m
Delno oblačno 1524 m
Pretežno oblačno 2743 m
2021/08/01 11:20 LOXZ 011120Z 13005KT 100V160 10KM -TSRA FEW012ST FEW030CB SCT050SC BKN090AC 18/17 Q1007 NOSIG
sucontract_SNC